Airport ID:KEKS
Update Time (UTC):19/04/2019 20:31
Wind Speed (Knots):19
Wind Direction (Magnetic):170
Temperature (°C):20.8
Dew Point (°C):0.1
Humidity (%):25.1
Altimeter (inHg):30.03
Density Altitude (Feet):07300
Visibility (Miles):10
Clouds (Hundreds of feet):SCT090
Present Weather:
METAR:METAR KEKS 192030Z AUTO 18015G25KT 10SM SCT090 21/00 A3003 RMK AO2

The data displayed is for advisory purposes only and is not to be used for flight planning or operations.

This page is not automatically refreshed. Reload the page to see current data.